Highlands Peak, California Weather observations

Data are for observation ending at time listed.
 Day   Time    Ave.   Ave.  Ave.  Vector   Max.   Stn.    Total    Solar   Ave.  
  of    of     Air    Rel.  Wind   Wind    Wind   Baro.  Precip.   Rad.    Soil  
Year   Day     Temp.  Hum.  Speed  Dir.    Gust   Pres.                    Temp. 
2015   (PST)    F      %     mph   deg.    mph     mb.     in.     W/m2     F   
------------------------------------------------------------------------------
  29   12:50   60.0    46    4.1   264      6.7   931.9    0.00     654    55.7
  29   13:00   60.3    45    3.5   273      6.1   931.7    0.00     647    56.0
  29   13:10   60.9    45    3.2   272      6.5   931.5    0.00     639    56.2
  29   13:20   61.1    45    3.9   279      6.2   931.4    0.00     629    56.5
  29   13:30   60.9    46    4.2   273      6.6   931.3    0.00     617    56.7
  29   13:40   60.6    46    3.2   262      6.0   931.2    0.00     603    57.1
  29   13:50   60.6    47    4.1   270      6.4   931.1    0.00     587    57.3
  29   14:00   60.7    47    3.2   268      5.8   931.1    0.00     570    57.6
  29   14:10   61.0    46    4.7   269      7.0   931.1    0.00     551    57.8
  29   14:20   60.4    45    7.6   267     10.4   931.1    0.00     530    58.2
  29   14:30   59.8    45    6.7   263      9.4   931.1    0.00     507    58.5
  29   14:40   60.2    46    4.9   273      7.7   931.1    0.00     483    58.7
  29   14:50   60.5    47    4.5   265      7.7   931.0    0.00     459    58.9
  29   15:00   60.7    46    4.1   268      5.8   931.0    0.00     434    59.1
  29   15:10   60.9    44    4.3   264      6.1   930.9    0.00     407    59.3
  29   15:20   60.9    46    4.4   264      6.9   930.9    0.00     379    59.5
  29   15:30   60.9    46    3.4   275      6.1   930.9    0.00     349    59.7
  29   15:40   61.1    45    3.4   272      6.3   930.9    0.00     310    59.8
  29   15:50   61.4    44    2.6   254      4.4   930.9    0.00     288    60.0
  29   16:00   61.5    44    2.1   269      4.8   930.9    0.00     257    60.2
  29   16:10   61.4    40    1.3   287      3.0   930.9    0.00     226    60.3
  29   16:20   61.4    39    1.9   273      4.2   930.9    0.00     195    60.5
  29   16:30   62.1    37    1.7   272      3.8   930.8    0.00     166    60.6
  29   16:40   61.5    38    2.0   288      3.1   930.8    0.00     137    60.7
  29   16:50   61.4    40    1.7   275      3.7   930.8    0.00     110    60.8
  29   17:00   61.8    39    1.1   281      2.9   930.8    0.00      85    60.9
  29   17:10   61.1    41    2.0   259      2.8   930.8    0.00      61    60.9
  29   17:20   60.2    45    1.0   258      1.9   930.9    0.00      39    61.0
  29   17:30   59.5    46    0.3   140      1.1   930.9    0.00      20    61.0
  29   17:40   58.5    44    0.5   140      1.8   931.0    0.00       5    61.0
  29   17:50   58.7    41    0.8   161      2.7   931.0    0.00       1    60.9
  29   18:00   58.7    41    1.4   195      3.1   931.0    0.00       0    60.8
  29   18:10   58.5    42    0.4   146      4.2   931.0    0.00       0    60.7
  29   18:20   57.7    49    6.1   103      8.5   931.0    0.00       0    60.6
  29   18:30   56.9    52    6.3   101      8.8   931.0    0.00       0    60.4
  29   18:40   56.9    49    4.9   101      7.4   931.1    0.00       0    60.2
  29   18:50   57.8    46    5.5   120      8.0   931.1    0.00       0    60.1
  29   19:00   57.9    47    4.9   117      6.9   931.2    0.00       0    59.8
  29   19:10   58.5    46    4.0   108      5.8   931.2    0.00       0    59.8
  29   19:20   58.1    47    4.2   113      6.3   931.3    0.00       0    59.8
  29   19:30   58.3    42    3.8   148      5.4   931.4    0.00       0    59.6
  29   19:40   58.4    42    3.2   118      4.5   931.4    0.00       0    59.5
  29   19:50   58.2    45    3.2   102      5.5   931.4    0.00       0    59.6
  29   20:00   57.5    48    4.2   108      5.2   931.3    0.00       0    59.5
  29   20:10   57.4    49    3.2   107      4.5   931.4    0.00       0    59.3
  29   20:20   57.3    49    4.2    93      5.6   931.4    0.00       0    59.3
  29   20:30   57.2    48    4.8    91      6.8   931.3    0.00       0    59.3
  29   20:40   57.2    48    4.7    93      6.0   931.3    0.00       0    59.2
  29   20:50   57.2    48    4.8    95      6.1   931.3    0.00       0    59.1
  29   21:00   57.3    47    5.0    97      7.2   931.3    0.00       0    58.9
  29   21:10   57.2    47    5.0    96      7.5   931.3    0.00       0    58.8
  29   21:20   57.4    46    4.2    95      5.6   931.3    0.00       0    58.7
  29   21:30   57.7    44    3.6   100      5.0   931.2    0.00       0    58.5
  29   21:40   57.5    45    4.4   103      5.9   931.1    0.00       0    58.4
  29   21:50   57.2    47    5.0    97      7.0   931.1    0.00       0    58.2
  29   22:00   57.1    48    4.4    96      6.5   931.1    0.00       0    58.2
  29   22:10   57.3    47    4.9   100      6.5   931.1    0.00       0    58.0
  29   22:20   57.6    45    4.2    75      5.8   931.1    0.00       0    57.9
  29   22:30   58.2    44    3.2    16      4.7   931.1    0.00       0    57.9
  29   22:40   57.8    45    4.2   307      5.4   931.2    0.00       0    57.8
  29   22:50   57.7    45    2.9   317      4.4   931.2    0.00       0    57.7
  29   23:00   58.0    44    3.6   345      5.3   931.2    0.00       0    57.6
  29   23:10   57.9    44    3.7   331      5.3   931.2    0.00       0    57.5
  29   23:20   58.0    44    4.1   327      5.6   931.1    0.00       0    57.4
  29   23:30   56.9    46    2.6   315      3.9   931.1    0.00       0    57.3
  29   23:40   56.7    46    4.1    45      5.6   931.1    0.00       0    57.1
  29   23:50   57.3    44    4.7    30      5.9   931.1    0.00       0    57.0
  30    0:00   57.9    42    4.5    35      6.6   931.1    0.00       0    56.9
  30    0:10   57.6    43    3.2    32      5.7   931.0    0.00       0    56.8
  30    0:20   57.9    42    3.2   332      4.9   930.9    0.00       0    56.6
  30    0:30   56.6    45    4.5    30      7.5   930.8    0.00       0    56.5
  30    0:40   55.9    45    4.8    57      6.4   930.7    0.00       0    56.4
  30    0:50   56.8    43    4.8    28      6.1   930.5    0.00       0    56.4
  30    1:00   57.2    42    3.6    42      4.5   930.4    0.00       0    56.3
  30    1:10   56.5    43    3.9    86      5.6   930.3    0.00       0    56.1
  30    1:20   56.1    43    4.2    97      5.8   930.2    0.00       0    56.0
  30    1:30   56.2    42    4.3   107      5.6   930.2    0.00       0    55.9
  30    1:40   56.0    42    4.5   103      6.4   930.2    0.00       0    55.7
  30    1:50   56.5    40    4.6    88      7.4   930.1    0.00       0    55.6
  30    2:00   56.6    41    6.5    86     11.6   929.9    0.00       0    55.6
  30    2:10   56.6    42    4.7    90      9.6   929.9    0.00       0    55.5
  30    2:20   56.3    43    3.5    78      8.8   929.9    0.00       0    55.4
  30    2:30   56.9    41    1.8   125      5.6   929.9    0.00       0    55.4
  30    2:40   56.7    41    2.0   142      5.3   929.8    0.00       0    55.3
  30    2:50   56.1    42    3.2   125      6.1   929.7    0.00       0    55.1
  30    3:00   56.2    42    3.9   128      7.5   929.7    0.00       0    55.0
  30    3:10   56.1    42    3.7    83      6.4   929.7    0.00       0    55.0
  30    3:20   56.1    42    4.2    84      6.1   929.7    0.00       0    55.0
  30    3:30   55.4    44    4.7    71      5.9   929.6    0.00       0    54.9
  30    3:40   55.1    45    4.1    43      5.9   929.5    0.00       0    54.9
  30    3:50   55.7    43    2.8    43      4.3   929.4    0.00       0    54.8
  30    4:00   55.8    42    1.9   128      2.5   929.3    0.00       0    54.7
  30    4:10   55.7    42    0.4   115      1.6   929.3    0.00       0    54.6
  30    4:20   55.6    42    1.5   117      2.7   929.2    0.00       0    54.5
  30    4:30   55.9    42    2.1   111      3.2   929.2    0.00       0    54.4
  30    4:40   55.6    42    2.8   120      4.1   929.1    0.00       0    54.2
  30    4:50   55.2    43    3.2   105      5.0   929.0    0.00       0    54.1
  30    5:00   55.1    43    1.6    85      3.7   929.0    0.00       0    54.1
  30    5:10   54.9    44    2.2    85      3.8   928.9    0.00       0    54.1
  30    5:20   54.8    44    2.5    85      3.8   928.9    0.00       0    54.1
  30    5:30   54.9    44    2.9    90      4.4   928.9    0.00       0    54.0
  30    5:40   55.6    44    4.7    66      7.6   928.9    0.00       0    53.9
  30    5:50   55.3    45    4.2    64      6.1   928.9    0.00       0    53.9
  30    6:00   55.5    44    1.8    68      3.7   928.9    0.00       0    53.8
  30    6:10   55.6    45    3.3    83      4.7   928.8    0.00       0    53.7
  30    6:20   54.9    46    4.2    90      5.6   928.8    0.00       0    53.6
  30    6:30   54.6    47    4.3    92      6.0   928.8    0.00       0    53.5
  30    6:40   54.9    46    3.1    88      4.5   928.8    0.00       0    53.5
  30    6:50   54.9    46    3.3    86      4.7   928.8    0.00       0    53.4
  30    7:00   54.8    46    3.0    88      4.7   928.8    0.00       1    53.3
  30    7:10   54.6    46    3.2    82      4.9   928.9    0.00       3    53.2
  30    7:20   54.3    47    5.2    95      6.1   928.9    0.00       6    53.2
  30    7:30   54.1    47    5.2    91      6.5   928.8    0.00      10    53.1
  30    7:40   54.2    47    4.6    94      6.2   928.8    0.00      14    53.1
  30    7:50   55.2    44    4.1    90      5.7   928.8    0.00      82    53.0
  30    8:00   56.3    43    3.7    92      5.8   928.8    0.00     144    52.9
  30    8:10   57.3    42    2.9    93      4.2   928.9    0.00     177    52.8
  30    8:20   57.8    41    3.0    91      3.9   928.9    0.00     210    52.8
  30    8:30   58.2    42    1.8    55      2.9   928.8    0.00     244    52.8
  30    8:40   58.3    40    1.8   280      3.0   928.8    0.00     277    52.7
  30    8:50   57.2    43    1.3   252      2.0   928.8    0.00     309    52.6
  30    9:00   57.7    41    0.6   243      1.8   928.9    0.00     341    52.5
  30    9:10   58.3    40    0.0   240      0.7   929.0    0.00     372    52.5
  30    9:20   58.3    41    1.3   246      2.3   929.0    0.00     401    52.5
  30    9:30   57.9    44    1.3   234      2.6   929.0    0.00     430    52.5
  30    9:40   59.5    43    2.2   210      4.2   929.0    0.00     457    52.5
  30    9:50   58.7    45    2.8   271      3.7   929.0    0.00     483    52.6
  30   10:00   58.2    47    2.4   247      3.7   929.0    0.00     507    52.6
  30   10:10   58.7    46    1.8   256      3.7   929.0    0.00     531    52.8
  30   10:20   59.5    45    2.8   238      5.4   928.9    0.00     553    52.9
  30   10:30   58.9    48    3.8   269      4.9   928.9    0.00     572    53.0
  30   10:40   58.9    48    2.8   261      5.1   929.0    0.00     590    53.2
  30   10:50   59.8    48    2.5   236      4.9   928.9    0.00     606    53.4
  30   11:00   60.0    51    5.3   258      8.3   928.8    0.00     619    53.6
  30   11:10   58.2    56    5.3   260      9.6   928.9    0.00     629    53.8
  30   11:20   58.4    52    4.1   252      7.0   928.9    0.00     641    54.0
  30   11:30   60.0    47    2.8   253      4.5   928.7    0.00     651    54.3
  30   11:40   59.5    50    2.6   277      4.1   928.4    0.00     659    54.5
  30   11:50   59.0    58    5.3   267      8.3   928.3    0.00     664    54.7
  30   12:00   58.5    57    3.9   250      5.9   928.1    0.00     668    55.0
  30   12:10   58.5    60    4.8   272      6.9   928.0    0.00     671    55.3
  30   12:20   58.4    57    5.0   266      6.6   927.8    0.00     671    55.5
  30   12:30   58.9    55    3.9   258      7.7   927.7    0.00     669    55.7
  30   12:40   59.3    55    3.2   277      7.3   927.5    0.00     666    55.9

Return to Highlands Peak graphs page.


Western Regional Climate Center,wrcc@dri.edu